Time;durP1;ratioP1;P1;durP2;ratioP2;P2;SDS_P1;SDS_P2;PMS_P1;PMS_P2;Temp;Humidity;BMP_temperature;BMP_pressure;BME280_temperature;BME280_humidity;BME280_pressure;Samples;Min_cycle;Max_cycle;Signal;HPM_P1;HPM_P2
2022/11/07 00:01:16;;;;;;;12.02;8.18;;;25.70;99.90;;;;;;5091322;28;20135;-49
2022/11/07 00:03:42;;;;;;;13.88;9.05;;;25.70;99.90;;;;;;5091035;28;20055;-49
2022/11/07 00:06:08;;;;;;;11.65;8.25;;;25.70;99.90;;;;;;5078707;28;20060;-49
2022/11/07 00:08:34;;;;;;;12.45;8.00;;;25.70;99.90;;;;;;5075419;28;20044;-49
2022/11/07 00:11:00;;;;;;;11.02;7.38;;;25.70;99.90;;;;;;5077695;28;20008;-49
2022/11/07 00:13:27;;;;;;;11.23;8.03;;;25.70;99.90;;;;;;5085354;28;20024;-49
2022/11/07 00:15:57;;;;;;;10.77;7.63;;;25.70;99.90;;;;;;5078432;28;20020;-49
2022/11/07 00:18:22;;;;;;;8.98;6.80;;;25.70;99.90;;;;;;5076445;28;20024;-50
2022/11/07 00:20:48;;;;;;;13.60;7.30;;;25.60;99.90;;;;;;5075444;28;20020;-49
2022/11/07 00:23:14;;;;;;;8.30;6.82;;;25.60;99.90;;;;;;5076587;28;20024;-49
2022/11/07 00:25:40;;;;;;;10.20;6.72;;;25.60;99.90;;;;;;5084702;28;20071;-49
2022/11/07 00:28:05;;;;;;;8.68;6.97;;;25.60;99.90;;;;;;5078721;28;20361;-49
2022/11/07 00:30:31;;;;;;;9.35;6.72;;;25.60;99.90;;;;;;5084862;28;20024;-48
2022/11/07 00:32:57;;;;;;;12.48;6.45;;;25.60;99.90;;;;;;5090847;28;20036;-48
2022/11/07 00:35:23;;;;;;;7.72;5.97;;;25.50;99.90;;;;;;5081029;28;20104;-50
2022/11/07 00:37:48;;;;;;;11.35;6.10;;;25.50;99.90;;;;;;5090399;28;20052;-50
2022/11/07 00:40:14;;;;;;;10.00;6.05;;;25.50;99.90;;;;;;5083999;28;20032;-48
2022/11/07 00:42:40;;;;;;;8.85;5.88;;;25.50;99.90;;;;;;5089214;28;20107;-48
2022/11/07 00:45:06;;;;;;;10.32;5.47;;;25.50;99.90;;;;;;5094347;28;20150;-48
2022/11/07 00:47:32;;;;;;;14.88;6.22;;;25.50;99.90;;;;;;5094465;28;20028;-49
2022/11/07 00:49:58;;;;;;;10.35;5.20;;;25.50;99.90;;;;;;5094541;28;20020;-48
2022/11/07 00:52:24;;;;;;;9.32;5.38;;;25.50;99.90;;;;;;5094095;28;20031;-48
2022/11/07 00:54:49;;;;;;;7.93;4.93;;;25.50;99.90;;;;;;5094249;28;20426;-48
2022/11/07 00:57:15;;;;;;;9.43;5.20;;;25.40;99.90;;;;;;5076199;28;20020;-48
2022/11/07 00:59:41;;;;;;;9.55;5.53;;;25.40;99.90;;;;;;5076379;28;20056;-48
2022/11/07 01:02:06;;;;;;;7.05;4.75;;;25.40;99.90;;;;;;5094266;28;20047;-48
2022/11/07 01:05:14;;;;;;;8.93;5.20;;;25.40;99.90;;;;;;5094174;28;20032;-49
2022/11/07 01:07:21;;;;;;;8.02;5.10;;;25.40;99.90;;;;;;5066117;28;20369;-48
2022/11/07 01:09:47;;;;;;;9.65;5.32;;;25.40;99.90;;;;;;5092276;28;20027;-48
2022/11/07 01:12:12;;;;;;;9.18;5.43;;;25.40;99.90;;;;;;5093775;28;20034;-48
2022/11/07 01:14:38;;;;;;;7.45;5.05;;;25.40;99.90;;;;;;5080330;28;20016;-48
2022/11/07 01:17:04;;;;;;;6.90;5.25;;;25.40;99.90;;;;;;5075750;28;20032;-48
2022/11/07 01:19:30;;;;;;;7.97;5.55;;;25.30;99.90;;;;;;5093982;28;20021;-48
2022/11/07 01:21:55;;;;;;;6.15;4.68;;;25.30;99.90;;;;;;5093608;28;20024;-49
2022/11/07 01:24:21;;;;;;;10.25;4.60;;;25.30;99.90;;;;;;5093737;28;20028;-49
2022/11/07 01:26:47;;;;;;;7.45;4.65;;;25.30;99.90;;;;;;5093818;28;20058;-49
2022/11/07 01:29:15;;;;;;;7.47;4.93;;;25.30;99.90;;;;;;5093786;28;20035;-48
2022/11/07 01:31:41;;;;;;;;;;;25.30;99.90;;;;;;5093785;28;20065;-48
2022/11/07 01:34:06;;;;;;;6.75;4.40;;;25.30;99.90;;;;;;5093728;28;19908;-48
2022/11/07 01:36:32;;;;;;;6.05;4.28;;;25.30;99.90;;;;;;5093574;28;20027;-49
2022/11/07 01:38:58;;;;;;;6.47;4.32;;;25.30;99.90;;;;;;5093284;28;20023;-48
2022/11/07 01:41:27;;;;;;;6.45;4.13;;;25.30;99.90;;;;;;5090889;28;20345;-49
2022/11/07 01:43:56;;;;;;;6.18;4.15;;;25.20;99.90;;;;;;5087412;28;20020;-48
2022/11/07 01:46:33;;;;;;;7.25;4.55;;;25.20;99.90;;;;;;5083110;28;20016;-48
2022/11/07 01:49:13;;;;;;;7.20;4.00;;;25.20;99.90;;;;;;5093505;28;20100;-49
2022/11/07 01:51:46;;;;;;;5.03;4.15;;;25.20;99.90;;;;;;5092712;28;20016;-47
2022/11/07 01:54:15;;;;;;;9.00;4.55;;;25.20;99.90;;;;;;5078420;28;20025;-48
2022/11/07 01:56:43;;;;;;;7.97;4.55;;;25.20;99.90;;;;;;5090496;28;20380;-48
2022/11/07 01:59:13;;;;;;;6.90;3.95;;;25.20;99.90;;;;;;5084994;28;20078;-48
2022/11/07 02:01:39;;;;;;;5.50;3.97;;;25.20;99.90;;;;;;5085945;28;20134;-48
2022/11/07 02:04:05;;;;;;;5.28;4.00;;;25.20;99.90;;;;;;5093035;28;20028;-48
2022/11/07 02:06:43;;;;;;;6.45;4.55;;;25.20;99.90;;;;;;5092691;28;20024;-48
2022/11/07 02:09:09;;;;;;;5.90;4.20;;;25.10;99.90;;;;;;5092777;28;20074;-48
2022/11/07 02:11:35;;;;;;;8.45;4.43;;;25.10;99.90;;;;;;5075349;28;20059;-48
2022/11/07 02:14:01;;;;;;;4.80;4.03;;;25.10;99.90;;;;;;5093132;28;20437;-49
2022/11/07 02:16:28;;;;;;;5.32;3.65;;;25.20;99.90;;;;;;5092716;28;20042;-48
2022/11/07 02:18:54;;;;;;;5.70;3.67;;;25.10;99.90;;;;;;5087705;28;20059;-47
2022/11/07 02:21:43;;;;;;;7.05;3.92;;;25.10;99.90;;;;;;5081306;28;20496;-47
2022/11/07 02:24:09;;;;;;;5.65;3.55;;;25.10;99.90;;;;;;5092464;28;20167;-47
2022/11/07 02:26:37;;;;;;;4.78;3.60;;;25.10;99.90;;;;;;5091491;28;20017;-47
2022/11/07 02:29:06;;;;;;;6.18;3.40;;;25.10;99.90;;;;;;5087758;28;20031;-47
2022/11/07 02:31:32;;;;;;;6.45;4.00;;;25.10;99.90;;;;;;5092664;28;20482;-48
2022/11/07 02:33:58;;;;;;;4.90;3.50;;;25.00;99.90;;;;;;5091813;28;20106;-48
2022/11/07 02:36:24;;;;;;;6.85;3.65;;;25.00;99.90;;;;;;5079217;28;20102;-49
2022/11/07 02:38:56;;;;;;;7.20;3.70;;;25.00;99.90;;;;;;5092468;28;20070;-48
2022/11/07 02:41:30;;;;;;;8.38;4.07;;;25.00;99.90;;;;;;5092693;28;20056;-48
2022/11/07 02:43:59;;;;;;;8.95;3.20;;;25.00;99.90;;;;;;5092680;28;20024;-47
2022/11/07 02:46:26;;;;;;;7.03;3.38;;;25.10;99.90;;;;;;5092325;28;20031;-48
2022/11/07 02:48:57;;;;;;;3.85;3.22;;;25.00;99.90;;;;;;5092721;28;20033;-48
2022/11/07 02:51:23;;;;;;;3.95;3.08;;;25.00;99.90;;;;;;5091617;28;20089;-48
2022/11/07 02:53:50;;;;;;;8.85;3.30;;;25.00;99.90;;;;;;5092258;28;20023;-48
2022/11/07 02:56:16;;;;;;;7.63;4.13;;;25.00;99.90;;;;;;5092780;28;20051;-49
2022/11/07 02:58:42;;;;;;;4.47;3.45;;;25.00;99.90;;;;;;5092493;28;20021;-48
2022/11/07 03:01:07;;;;;;;4.72;2.70;;;25.00;99.90;;;;;;5092537;28;20074;-48
2022/11/07 03:03:41;;;;;;;6.07;3.15;;;25.00;99.90;;;;;;5092651;28;20368;-48
2022/11/07 03:06:09;;;;;;;5.70;3.13;;;25.00;99.90;;;;;;5092606;28;20346;-47
2022/11/07 03:08:35;;;;;;;4.65;2.53;;;25.00;99.90;;;;;;5091987;28;20450;-49
2022/11/07 03:11:02;;;;;;;5.22;3.22;;;25.00;99.90;;;;;;5070461;28;20468;-49
2022/11/07 03:13:28;;;;;;;5.63;3.60;;;25.00;99.90;;;;;;5090119;28;20024;-48
2022/11/07 03:15:54;;;;;;;10.98;3.50;;;25.00;99.90;;;;;;5091892;28;20639;-47
2022/11/07 03:18:21;;;;;;;8.15;3.28;;;25.00;99.90;;;;;;5093929;28;20020;-47
2022/11/07 03:20:46;;;;;;;6.15;3.10;;;25.00;99.90;;;;;;5096390;28;20360;-48
2022/11/07 03:23:12;;;;;;;11.40;3.22;;;25.00;99.90;;;;;;5095746;28;20031;-48
2022/11/07 03:25:38;;;;;;;6.80;3.72;;;24.90;99.90;;;;;;5096020;28;20016;-48
2022/11/07 03:28:04;;;;;;;4.97;2.90;;;24.90;99.90;;;;;;5096186;28;20036;-48
2022/11/07 03:30:30;;;;;;;5.47;2.78;;;24.90;99.90;;;;;;5095601;28;20015;-48
2022/11/07 03:32:56;;;;;;;5.60;2.97;;;24.90;99.90;;;;;;5094991;28;20051;-49
2022/11/07 03:35:22;;;;;;;3.67;3.08;;;24.90;99.90;;;;;;5096053;28;20023;-48
2022/11/07 03:37:48;;;;;;;5.65;3.13;;;24.90;99.90;;;;;;5094437;28;20020;-48
2022/11/07 03:40:15;;;;;;;3.97;2.50;;;24.90;99.90;;;;;;5095927;28;20073;-49
2022/11/07 03:42:42;;;;;;;5.00;2.75;;;24.90;99.90;;;;;;5095930;28;20020;-49
2022/11/07 03:45:09;;;;;;;4.15;2.85;;;24.80;99.90;;;;;;5096119;28;20385;-48
2022/11/07 03:47:37;;;;;;;4.43;2.92;;;24.80;99.90;;;;;;5094703;28;20028;-49
2022/11/07 03:50:03;;;;;;;5.05;2.90;;;24.80;99.90;;;;;;5095803;28;20024;-49
2022/11/07 03:52:29;;;;;;;10.80;3.10;;;24.80;99.90;;;;;;5095487;28;20031;-48
2022/11/07 03:54:55;;;;;;;3.85;2.60;;;24.70;99.90;;;;;;5095640;28;20020;-48
2022/11/07 03:57:21;;;;;;;5.03;3.13;;;24.80;99.90;;;;;;5095487;28;20156;-48
2022/11/07 03:59:46;;;;;;;5.38;2.80;;;24.70;99.90;;;;;;5095857;28;20047;-49
2022/11/07 04:02:12;;;;;;;3.33;2.42;;;24.70;99.90;;;;;;5095317;28;20059;-48
2022/11/07 04:04:38;;;;;;;5.93;2.65;;;24.70;99.90;;;;;;5093526;28;20039;-48
2022/11/07 04:07:04;;;;;;;3.88;2.45;;;24.70;99.90;;;;;;5094179;28;20034;-48
2022/11/07 04:09:29;;;;;;;3.78;2.40;;;24.70;99.90;;;;;;5095722;28;20055;-48
2022/11/07 04:17:24;;;;;;;4.10;2.60;;;24.70;99.90;;;;;;5095547;28;20027;-48
2022/11/07 04:19:54;;;;;;;3.95;2.85;;;24.60;99.90;;;;;;5094412;28;20491;-48
2022/11/07 04:22:21;;;;;;;3.92;2.70;;;24.60;99.90;;;;;;5095511;28;20031;-47
2022/11/07 04:24:46;;;;;;;4.85;3.10;;;24.60;99.90;;;;;;5095238;28;20422;-48
2022/11/07 04:30:17;;;;;;;3.30;2.30;;;24.50;99.90;;;;;;5094795;28;20145;-48
2022/11/07 04:32:47;;;;;;;4.13;2.67;;;24.50;99.90;;;;;;5095045;28;20028;-49
2022/11/07 04:35:13;;;;;;;7.20;2.90;;;24.50;99.90;;;;;;5095305;28;20103;-49
2022/11/07 04:37:40;;;;;;;4.22;2.70;;;24.50;99.90;;;;;;5095040;28;20411;-48
2022/11/07 04:40:06;;;;;;;3.85;2.60;;;24.50;99.90;;;;;;5095089;28;20031;-48
2022/11/07 04:42:32;;;;;;;2.72;2.28;;;24.50;99.90;;;;;;5094950;28;20484;-48
2022/11/07 04:44:58;;;;;;;4.47;3.00;;;24.50;99.90;;;;;;5076792;28;20061;-48
2022/11/07 04:47:23;;;;;;;3.20;2.53;;;24.50;99.90;;;;;;5094773;28;20063;-49
2022/11/07 04:49:49;;;;;;;4.13;3.17;;;24.40;99.90;;;;;;5094837;28;20028;-49
2022/11/07 04:52:15;;;;;;;4.78;3.03;;;24.40;99.90;;;;;;5094722;28;20115;-48
2022/11/07 04:54:41;;;;;;;3.22;2.65;;;24.40;99.90;;;;;;5094892;28;20073;-48
2022/11/07 04:57:07;;;;;;;3.20;2.80;;;24.40;99.90;;;;;;5094661;28;20520;-48
2022/11/07 04:59:32;;;;;;;4.25;2.95;;;24.40;99.90;;;;;;5095196;28;20032;-48
2022/11/07 05:01:58;;;;;;;5.03;2.63;;;24.40;99.90;;;;;;5095012;28;20032;-48
2022/11/07 05:04:24;;;;;;;3.92;3.05;;;24.40;99.90;;;;;;5094371;28;20026;-48
2022/11/07 05:06:50;;;;;;;4.38;2.50;;;24.40;99.90;;;;;;5094827;28;20020;-48
2022/11/07 05:09:17;;;;;;;4.10;2.90;;;24.30;99.90;;;;;;5094369;28;20035;-48
2022/11/07 05:11:44;;;;;;;4.07;2.88;;;24.30;99.90;;;;;;5076185;28;20104;-49
2022/11/07 05:14:09;;;;;;;3.88;2.65;;;24.30;99.90;;;;;;5094597;28;20040;-48
2022/11/07 05:16:36;;;;;;;5.13;2.70;;;24.30;99.90;;;;;;5076118;28;20039;-48
2022/11/07 05:19:02;;;;;;;4.05;3.03;;;24.30;99.90;;;;;;5094417;28;20431;-48
2022/11/07 05:21:28;;;;;;;3.72;2.88;;;24.30;99.90;;;;;;5094552;28;20085;-48
2022/11/07 05:23:54;;;;;;;3.17;2.70;;;24.30;99.90;;;;;;5094143;28;20024;-48
2022/11/07 05:26:19;;;;;;;3.67;2.42;;;24.30;99.90;;;;;;5094268;28;20032;-49
2022/11/07 05:28:45;;;;;;;3.92;3.30;;;24.30;99.90;;;;;;5093987;28;20039;-49
2022/11/07 05:31:15;;;;;;;5.95;3.10;;;24.20;99.90;;;;;;5094177;28;20024;-49
2022/11/07 05:33:41;;;;;;;3.63;2.63;;;24.20;99.90;;;;;;5075955;28;20392;-49
2022/11/07 05:36:14;;;;;;;5.47;2.72;;;24.20;99.90;;;;;;5094041;28;20028;-49
2022/11/07 05:38:44;;;;;;;4.20;3.22;;;24.20;99.90;;;;;;5093821;28;20095;-48
2022/11/07 05:41:11;;;;;;;2.97;2.30;;;24.20;99.90;;;;;;5093118;28;20460;-49
2022/11/07 05:43:38;;;;;;;3.50;2.30;;;24.10;99.90;;;;;;5093954;28;20024;-49
2022/11/07 05:46:04;;;;;;;4.60;3.03;;;24.20;99.90;;;;;;5093750;28;20042;-49
2022/11/07 05:48:30;;;;;;;3.15;2.50;;;24.10;99.90;;;;;;5093744;28;20067;-49
2022/11/07 05:50:57;;;;;;;4.65;2.85;;;24.10;99.90;;;;;;5093927;28;20027;-49
2022/11/07 05:53:24;;;;;;;3.58;2.75;;;24.10;99.90;;;;;;5093724;28;20020;-49
2022/11/07 05:55:53;;;;;;;5.25;2.95;;;24.10;99.90;;;;;;5093666;28;20098;-49
2022/11/07 05:58:20;;;;;;;5.15;2.85;;;24.10;99.90;;;;;;5093724;28;20372;-49
2022/11/07 06:00:46;;;;;;;3.05;2.25;;;24.10;99.90;;;;;;5093614;28;20507;-49
2022/11/07 06:03:12;;;;;;;2.90;2.50;;;24.00;99.90;;;;;;5093502;28;20042;-49
2022/11/07 06:05:40;;;;;;;4.28;2.78;;;24.10;99.90;;;;;;5093461;28;20048;-49
2022/11/07 06:08:08;;;;;;;4.07;2.50;;;24.00;99.90;;;;;;5075382;28;20475;-49
2022/11/07 06:10:35;;;;;;;5.78;2.55;;;24.00;99.90;;;;;;5093486;28;20512;-48
2022/11/07 06:13:04;;;;;;;3.53;2.60;;;24.00;99.90;;;;;;5093601;28;20472;-49
2022/11/07 06:15:33;;;;;;;5.72;2.47;;;24.00;99.90;;;;;;5093384;28;20039;-49
2022/11/07 06:18:00;;;;;;;5.07;2.65;;;24.00;99.90;;;;;;5093360;28;20053;-49
2022/11/07 06:20:27;;;;;;;3.10;2.58;;;24.00;99.90;;;;;;5093302;28;20513;-48
2022/11/07 06:23:00;;;;;;;2.72;2.30;;;23.90;99.90;;;;;;5093382;28;20036;-48
2022/11/07 06:25:27;;;;;;;4.15;2.15;;;23.90;99.90;;;;;;5075288;28;20100;-48
2022/11/07 06:27:57;;;;;;;3.75;2.75;;;23.90;99.90;;;;;;5093129;28;20036;-48
2022/11/07 06:30:22;;;;;;;3.65;2.55;;;23.90;99.90;;;;;;5093338;28;20461;-48
2022/11/07 06:32:48;;;;;;;2.97;2.13;;;23.90;99.90;;;;;;5093190;28;20028;-48
2022/11/07 06:35:14;;;;;;;3.67;2.33;;;23.90;99.90;;;;;;5093213;28;20024;-48
2022/11/07 06:37:40;;;;;;;5.20;2.78;;;23.90;99.90;;;;;;5093107;28;20028;-48
2022/11/07 06:40:06;;;;;;;3.33;2.40;;;23.90;99.90;;;;;;5075001;28;20066;-49
2022/11/07 06:42:32;;;;;;;2.97;2.45;;;23.90;99.90;;;;;;5093137;28;20376;-49
2022/11/07 06:44:57;;;;;;;3.15;2.17;;;23.90;99.90;;;;;;5093051;28;20035;-48
2022/11/07 06:47:23;;;;;;;3.72;2.20;;;23.80;99.90;;;;;;5092660;28;20032;-48
2022/11/07 06:49:49;;;;;;;3.28;2.42;;;23.90;99.90;;;;;;5092790;28;20024;-49
2022/11/07 06:52:15;;;;;;;4.47;2.40;;;23.80;99.90;;;;;;5093923;28;20525;-49
2022/11/07 06:54:42;;;;;;;3.80;2.88;;;23.80;99.90;;;;;;5096980;28;20038;-49
2022/11/07 06:57:08;;;;;;;3.58;2.10;;;23.80;99.90;;;;;;5096889;28;20372;-49
2022/11/07 06:59:34;;;;;;;2.58;2.17;;;23.80;99.90;;;;;;5096668;28;20019;-49
2022/11/07 07:02:00;;;;;;;3.95;2.33;;;23.80;99.90;;;;;;5096936;28;20032;-48
2022/11/07 07:04:26;;;;;;;3.20;2.30;;;23.80;99.90;;;;;;5096605;28;20081;-48
2022/11/07 07:06:51;;;;;;;3.13;2.30;;;23.80;99.90;;;;;;5096724;28;20111;-53
2022/11/07 07:09:17;;;;;;;3.58;2.55;;;23.80;99.90;;;;;;5096753;28;20028;-48
2022/11/07 07:11:44;;;;;;;3.10;2.30;;;23.80;99.90;;;;;;5096568;28;20027;-48
2022/11/07 07:14:10;;;;;;;5.28;2.55;;;23.90;99.90;;;;;;5096783;28;20364;-49
2022/11/07 07:16:36;;;;;;;3.80;2.28;;;23.90;99.90;;;;;;5096551;28;20182;-49
2022/11/07 07:19:02;;;;;;;4.28;2.15;;;23.90;99.90;;;;;;5096547;28;20508;-49
2022/11/07 07:21:28;;;;;;;6.45;2.38;;;23.90;99.90;;;;;;5096428;28;20020;-49
2022/11/07 07:23:54;;;;;;;3.45;2.47;;;23.90;99.90;;;;;;5096395;28;20047;-49
2022/11/07 07:26:20;;;;;;;3.75;2.17;;;23.90;99.90;;;;;;5096278;28;20109;-49
2022/11/07 07:28:47;;;;;;;5.05;2.42;;;23.90;99.90;;;;;;5096027;28;20032;-49
2022/11/07 07:31:13;;;;;;;7.03;2.55;;;24.00;99.90;;;;;;5094986;28;20032;-49
2022/11/07 07:33:42;;;;;;;3.05;2.42;;;24.00;99.90;;;;;;5096179;28;20353;-49
2022/11/07 07:36:08;;;;;;;7.90;2.70;;;24.10;99.90;;;;;;5096331;28;20253;-49
2022/11/07 07:38:35;;;;;;;5.22;3.17;;;24.10;99.90;;;;;;5096147;28;20485;-49
2022/11/07 07:41:00;;;;;;;4.15;2.40;;;24.10;99.90;;;;;;5096123;28;20380;-49
2022/11/07 07:43:27;;;;;;;3.38;2.60;;;24.10;99.90;;;;;;5096111;28;20028;-49
2022/11/07 07:45:56;;;;;;;6.57;2.70;;;24.10;99.90;;;;;;5096138;28;20036;-49
2022/11/07 07:48:22;;;;;;;5.25;2.53;;;24.20;99.90;;;;;;5095920;28;20036;-49
2022/11/07 07:50:51;;;;;;;4.57;3.25;;;24.20;99.90;;;;;;5095939;28;20461;-49
2022/11/07 07:53:17;;;;;;;4.60;3.00;;;24.30;99.90;;;;;;5095863;28;20102;-49
2022/11/07 07:55:43;;;;;;;8.93;2.60;;;24.30;99.90;;;;;;5095835;28;20342;-48
2022/11/07 07:58:10;;;;;;;5.78;3.10;;;24.30;99.90;;;;;;5095872;28;20024;-49
2022/11/07 08:00:37;;;;;;;4.55;2.92;;;24.30;99.90;;;;;;5095490;28;20039;-50
2022/11/07 08:03:10;;;;;;;3.30;2.60;;;24.40;99.90;;;;;;5095466;28;20027;-49
2022/11/07 08:05:37;;;;;;;3.45;2.60;;;24.40;99.90;;;;;;5095144;28;20035;-49
2022/11/07 08:08:04;;;;;;;4.90;2.70;;;24.50;99.90;;;;;;5095538;28;20392;-48
2022/11/07 08:10:30;;;;;;;4.35;2.95;;;24.50;99.90;;;;;;5077441;28;20030;-49
2022/11/07 08:12:55;;;;;;;3.63;2.70;;;24.50;99.90;;;;;;5095525;28;20020;-49
2022/11/07 08:15:21;;;;;;;9.07;3.40;;;24.60;99.90;;;;;;5095634;28;20016;-49
2022/11/07 08:17:48;;;;;;;6.00;3.00;;;24.60;99.90;;;;;;5095354;28;20028;-49
2022/11/07 08:20:15;;;;;;;5.68;3.17;;;24.70;99.90;;;;;;5095500;28;20016;-49
2022/11/07 08:22:42;;;;;;;6.07;3.08;;;24.70;99.90;;;;;;5095398;28;20020;-49
2022/11/07 08:25:09;;;;;;;5.95;2.97;;;24.70;99.90;;;;;;5095433;28;20055;-48
2022/11/07 08:27:36;;;;;;;5.93;3.13;;;24.80;99.90;;;;;;5095316;28;20022;-48
2022/11/07 08:30:03;;;;;;;5.13;3.38;;;24.80;99.90;;;;;;5095156;28;20052;-48
2022/11/07 08:32:29;;;;;;;5.95;3.50;;;24.90;99.90;;;;;;5095178;28;20027;-49
2022/11/07 08:34:55;;;;;;;3.78;2.85;;;24.90;99.90;;;;;;5077233;28;20468;-49
2022/11/07 08:37:22;;;;;;;5.20;3.03;;;24.90;99.90;;;;;;5077272;28;20129;-49
2022/11/07 08:39:47;;;;;;;5.47;2.85;;;25.00;99.90;;;;;;5095007;28;20020;-49
2022/11/07 08:42:14;;;;;;;4.32;3.00;;;25.00;99.90;;;;;;5094962;28;20032;-49
2022/11/07 08:44:40;;;;;;;5.07;2.72;;;25.10;99.90;;;;;;5076930;28;20024;-49
2022/11/07 08:47:06;;;;;;;4.32;3.33;;;25.20;99.90;;;;;;5094940;28;20432;-49
2022/11/07 08:49:32;;;;;;;5.47;3.17;;;25.10;99.90;;;;;;5076656;28;20024;-48
2022/11/07 08:51:59;;;;;;;3.95;2.53;;;25.20;99.90;;;;;;5095016;28;20028;-48
2022/11/07 08:54:25;;;;;;;4.80;3.08;;;25.30;99.90;;;;;;5076571;28;20032;-48
2022/11/07 08:56:51;;;;;;;3.63;2.47;;;25.30;99.90;;;;;;5094680;28;20027;-48
2022/11/07 08:59:17;;;;;;;5.43;3.42;;;25.30;99.90;;;;;;5094790;28;20020;-49
2022/11/07 09:01:43;;;;;;;4.97;2.92;;;25.30;99.90;;;;;;5094476;28;20040;-49
2022/11/07 09:04:08;;;;;;;7.60;3.03;;;25.40;99.90;;;;;;5094663;28;20428;-49
2022/11/07 09:06:34;;;;;;;3.03;2.65;;;25.50;99.90;;;;;;5094492;28;20070;-49
2022/11/07 09:09:01;;;;;;;5.70;2.95;;;25.50;99.90;;;;;;5094531;28;20040;-49
2022/11/07 09:11:27;;;;;;;5.60;2.70;;;25.60;99.90;;;;;;5094381;28;20032;-48
2022/11/07 09:13:54;;;;;;;5.25;2.80;;;25.60;99.90;;;;;;5094368;28;20064;-48
2022/11/07 09:16:21;;;;;;;6.82;2.72;;;25.60;99.90;;;;;;5094200;28;20016;-49
2022/11/07 09:18:48;;;;;;;5.47;2.88;;;25.60;99.90;;;;;;5094290;28;20107;-49
2022/11/07 09:21:14;;;;;;;4.55;2.75;;;25.70;99.90;;;;;;5094288;28;20028;-49
2022/11/07 09:23:40;;;;;;;4.97;2.97;;;25.70;99.90;;;;;;5094198;28;20057;-49
2022/11/07 09:26:06;;;;;;;4.72;2.65;;;25.80;99.90;;;;;;5094135;28;20111;-48
2022/11/07 09:28:32;;;;;;;5.38;2.90;;;25.80;99.90;;;;;;5093899;28;20039;-48
2022/11/07 09:31:00;;;;;;;4.55;3.10;;;25.80;99.90;;;;;;5093962;28;20027;-49
2022/11/07 09:33:26;;;;;;;6.00;2.80;;;25.90;99.90;;;;;;5093933;28;20023;-49
2022/11/07 09:35:53;;;;;;;4.55;3.08;;;25.90;99.90;;;;;;5093612;28;20024;-49
2022/11/07 09:38:19;;;;;;;6.00;3.22;;;25.90;99.90;;;;;;5094396;28;20027;-48
2022/11/07 09:40:59;;;;;;;3.42;2.33;;;26.00;99.90;;;;;;5093978;28;20541;-49
2022/11/07 09:43:27;;;;;;;7.47;2.70;;;26.10;99.90;;;;;;5075586;28;20019;-48
2022/11/07 09:45:53;;;;;;;6.68;2.80;;;26.10;99.90;;;;;;5093499;28;20028;-49
2022/11/07 09:48:23;;;;;;;4.68;2.97;;;26.10;99.90;;;;;;5093653;28;20535;-49
2022/11/07 09:50:50;;;;;;;8.25;2.95;;;26.20;99.90;;;;;;5093705;28;20020;-48
2022/11/07 09:53:22;;;;;;;5.45;2.75;;;26.20;99.90;;;;;;5093612;28;20024;-49
2022/11/07 09:55:54;;;;;;;7.65;2.60;;;26.30;99.90;;;;;;5093303;28;20028;-48
2022/11/07 09:58:54;;;;;;;4.15;2.42;;;26.30;99.90;;;;;;5093422;28;20479;-49
2022/11/07 10:01:21;;;;;;;6.25;3.10;;;26.40;99.90;;;;;;5053899;28;20052;-49
2022/11/07 10:03:47;;;;;;;6.60;2.58;;;26.40;99.90;;;;;;5093553;28;20531;-49
2022/11/07 10:06:39;;;;;;;5.40;2.40;;;26.50;99.90;;;;;;5093442;28;20032;-49
2022/11/07 10:09:29;;;;;;;5.47;3.00;;;26.60;99.90;;;;;;5093226;28;20484;-49
2022/11/07 10:12:17;;;;;;;9.52;2.65;;;26.60;99.90;;;;;;5093213;28;20020;-49
2022/11/07 10:15:14;;;;;;;4.82;3.20;;;26.70;99.90;;;;;;5093365;28;20052;-49
2022/11/07 10:17:58;;;;;;;8.32;2.83;;;26.70;99.90;;;;;;5093443;28;20031;-49
2022/11/07 10:20:40;;;;;;;6.20;2.90;;;26.80;99.90;;;;;;5093366;28;20097;-48
2022/11/07 10:23:14;;;;;;;7.38;2.80;;;26.80;99.90;;;;;;5093177;28;20375;-49
2022/11/07 10:26:07;;;;;;;6.43;3.03;;;26.90;99.90;;;;;;5074817;28;20020;-49
2022/11/07 10:28:43;;;;;;;5.65;2.88;;;27.00;99.90;;;;;;5092618;28;20067;-49
2022/11/07 10:31:11;;;;;;;3.80;2.70;;;27.00;99.90;;;;;;5092986;28;20521;-49
2022/11/07 10:33:55;;;;;;;7.93;2.95;;;27.10;99.90;;;;;;5093088;28;20031;-49
2022/11/07 10:36:25;;;;;;;4.72;2.75;;;27.10;99.90;;;;;;5092951;28;20016;-49
2022/11/07 10:38:51;;;;;;;9.30;3.30;;;27.10;99.90;;;;;;5093037;28;20068;-49
2022/11/07 10:41:26;;;;;;;5.40;2.72;;;27.20;99.90;;;;;;5074880;28;20491;-49
2022/11/07 10:43:59;;;;;;;5.53;3.08;;;27.20;99.90;;;;;;5092797;28;20020;-49
2022/11/07 10:46:30;;;;;;;6.57;2.65;;;27.30;99.90;;;;;;5092848;28;20031;-49
2022/11/07 10:48:59;;;;;;;4.85;2.90;;;27.30;99.90;;;;;;5092960;28;20472;-49
2022/11/07 10:51:37;;;;;;;3.92;2.92;;;27.30;99.90;;;;;;5092787;28;20103;-49
2022/11/07 10:54:05;;;;;;;3.40;2.30;;;27.30;99.90;;;;;;5092734;28;20059;-49
2022/11/07 10:56:42;;;;;;;;;;;27.40;99.90;;;;;;5093153;28;20038;-48
2022/11/07 10:59:23;;;;;;;4.13;2.85;;;27.40;99.90;;;;;;5092753;28;20373;-49
2022/11/07 11:01:54;;;;;;;4.25;2.55;;;27.50;99.90;;;;;;5074911;28;20075;-50
2022/11/07 11:04:25;;;;;;;4.47;2.92;;;27.50;99.90;;;;;;5092639;28;20020;-49
2022/11/07 11:07:10;;;;;;;5.28;3.25;;;27.60;99.90;;;;;;5092600;28;20067;-49
2022/11/07 11:09:36;;;;;;;5.82;3.10;;;27.60;99.90;;;;;;5092783;28;20028;-49
2022/11/07 11:12:11;;;;;;;6.68;2.80;;;27.60;99.90;;;;;;5092598;28;20460;-49
2022/11/07 11:14:37;;;;;;;7.20;2.70;;;27.60;99.90;;;;;;5092528;28;20439;-49
2022/11/07 11:17:03;;;;;;;6.13;3.25;;;27.70;99.90;;;;;;5074306;28;20025;-49
2022/11/07 11:19:47;;;;;;;4.32;3.00;;;27.70;99.90;;;;;;5092491;28;20414;-49
2022/11/07 11:22:19;;;;;;;6.20;2.90;;;27.70;99.90;;;;;;5092731;28;20020;-49
2022/11/07 11:24:45;;;;;;;5.95;3.20;;;27.70;99.90;;;;;;5092390;28;20384;-49
2022/11/07 11:27:21;;;;;;;5.28;2.50;;;27.80;99.90;;;;;;5092501;28;20095;-49
2022/11/07 11:30:10;;;;;;;4.72;2.72;;;27.80;99.90;;;;;;5074742;28;20396;-49
2022/11/07 11:32:47;;;;;;;4.55;2.60;;;27.80;99.90;;;;;;5091580;28;20481;-49
2022/11/07 11:35:35;;;;;;;4.45;2.67;;;27.90;99.90;;;;;;5092049;28;20024;-49
2022/11/07 11:38:27;;;;;;;3.85;2.40;;;27.90;99.90;;;;;;5078405;28;20024;-49
2022/11/07 11:41:06;;;;;;;11.18;2.92;;;27.90;99.90;;;;;;5065504;28;20120;-49
2022/11/07 11:43:45;;;;;;;6.97;2.33;;;27.90;99.90;;;;;;5075572;28;20033;-49
2022/11/07 11:46:27;;;;;;;6.05;3.10;;;27.80;99.90;;;;;;5085488;28;20012;-49
2022/11/07 11:49:18;;;;;;;4.97;2.30;;;27.50;99.90;;;;;;5090169;28;20039;-49
2022/11/07 11:51:49;;;;;;;6.40;2.67;;;27.10;99.90;;;;;;5067471;28;20115;-49
2022/11/07 11:54:15;;;;;;;8.23;2.17;;;26.80;99.90;;;;;;5084098;28;20028;-49
2022/11/07 11:56:59;;;;;;;5.03;2.00;;;26.50;99.90;;;;;;5086100;28;20482;-49
2022/11/07 11:59:48;;;;;;;7.80;2.35;;;26.30;99.90;;;;;;5085938;28;20594;-49
2022/11/07 12:02:49;;;;;;;5.88;2.47;;;26.10;99.90;;;;;;5085989;28;20031;-49
2022/11/07 12:05:51;;;;;;;4.10;2.45;;;26.00;99.90;;;;;;5085858;28;20031;-49
2022/11/07 12:08:31;;;;;;;7.43;4.05;;;25.90;99.90;;;;;;5085870;28;20033;-48
2022/11/07 12:11:12;;;;;;;5.18;2.50;;;25.80;99.90;;;;;;5083752;28;20395;-49
2022/11/07 12:13:47;;;;;;;7.15;3.47;;;25.70;99.90;;;;;;5085523;28;20024;-49
2022/11/07 12:16:34;;;;;;;9.93;2.92;;;25.70;99.90;;;;;;5095495;28;20025;-52
2022/11/07 12:19:20;;;;;;;6.85;3.22;;;25.60;99.90;;;;;;5093613;28;20395;-49
2022/11/07 12:21:51;;;;;;;9.40;2.72;;;25.50;99.90;;;;;;5087420;28;20024;-49
2022/11/07 12:24:49;;;;;;;8.75;3.00;;;25.50;99.90;;;;;;5075596;28;20528;-49
2022/11/07 12:27:54;;;;;;;6.53;3.47;;;25.50;99.90;;;;;;5066126;28;20480;-49
2022/11/07 12:30:32;;;;;;;5.38;2.90;;;25.40;99.90;;;;;;5093597;28;20092;-49
2022/11/07 12:32:58;;;;;;;8.25;3.85;;;25.40;99.90;;;;;;5095185;28;20012;-49
2022/11/07 12:35:26;;;;;;;6.35;3.55;;;25.30;99.90;;;;;;5095002;28;20049;-49
2022/11/07 12:38:09;;;;;;;6.78;4.00;;;25.20;99.90;;;;;;5094899;28;20020;-49
2022/11/07 12:40:55;;;;;;;8.80;3.60;;;25.10;99.90;;;;;;5094879;28;20443;-49
2022/11/07 12:43:24;;;;;;;8.55;3.85;;;25.00;99.90;;;;;;5095099;28;20024;-49
2022/11/07 12:46:02;;;;;;;4.75;2.92;;;25.00;99.90;;;;;;5094772;28;20016;-48
2022/11/07 12:48:33;;;;;;;6.80;3.92;;;24.90;99.90;;;;;;5094761;28;20036;-49
2022/11/07 12:51:05;;;;;;;4.40;3.15;;;24.90;99.90;;;;;;5094433;28;20037;-49
2022/11/07 12:53:53;;;;;;;8.05;3.17;;;24.80;99.90;;;;;;5094750;28;20056;-49
2022/11/07 12:56:26;;;;;;;6.72;3.22;;;24.80;99.90;;;;;;5094750;28;20016;-49
2022/11/07 12:58:53;;;;;;;9.60;3.55;;;24.80;99.90;;;;;;5094570;28;20444;-49
2022/11/07 13:01:27;;;;;;;7.70;3.73;;;24.80;99.90;;;;;;5094456;28;20036;-48
2022/11/07 13:04:07;;;;;;;5.32;3.15;;;24.80;99.90;;;;;;5094504;28;20292;-49
2022/11/07 13:06:53;;;;;;;5.82;3.53;;;24.90;99.90;;;;;;5094329;28;20047;-49